Time;durP1;ratioP1;P1;durP2;ratioP2;P2;SDS_P1;SDS_P2;PMS_P1;PMS_P2;Temp;Humidity;BMP_temperature;BMP_pressure;BME280_temperature;BME280_humidity;BME280_pressure;Samples;Min_cycle;Max_cycle;Signal;HPM_P1;HPM_P2
2022/09/10 00:00:59;;;;;;;1.92;0.80;;;12.50;99.90;;;;;;5028373;28;20033;-82
2022/09/10 00:03:25;;;;;;;2.63;0.90;;;12.50;99.90;;;;;;5028163;28;20036;-82
2022/09/10 00:06:04;;;;;;;1.45;0.80;;;12.50;99.90;;;;;;5028164;28;20427;-82
2022/09/10 00:08:30;;;;;;;1.63;0.90;;;12.40;99.90;;;;;;5027879;28;20048;-82
2022/09/10 00:10:56;;;;;;;2.05;0.90;;;12.40;99.90;;;;;;5028089;28;20025;-83
2022/09/10 00:13:22;;;;;;;4.40;1.02;;;12.40;99.90;;;;;;5027712;28;20778;-82
2022/09/10 00:15:51;;;;;;;3.05;0.90;;;12.30;99.90;;;;;;5026344;28;20044;-82
2022/09/10 00:18:19;;;;;;;2.83;0.75;;;12.30;99.90;;;;;;5027814;28;20513;-82
2022/09/10 00:20:53;;;;;;;1.73;0.90;;;12.30;99.90;;;;;;5027486;28;20300;-82
2022/09/10 00:23:22;;;;;;;2.47;0.90;;;12.30;99.90;;;;;;5026340;28;20087;-82
2022/09/10 00:25:50;;;;;;;1.13;0.85;;;12.30;99.90;;;;;;5027693;28;20025;-82
2022/09/10 00:28:17;;;;;;;2.78;0.70;;;12.30;99.90;;;;;;5027870;28;20038;-82
2022/09/10 00:30:45;;;;;;;3.95;1.00;;;12.30;99.90;;;;;;5027734;28;20056;-82
2022/09/10 00:33:11;;;;;;;3.05;0.90;;;12.20;99.90;;;;;;5027067;28;20059;-82
2022/09/10 00:35:39;;;;;;;3.67;0.98;;;12.20;99.90;;;;;;5027417;28;20033;-82
2022/09/10 00:38:05;;;;;;;3.53;0.80;;;12.20;99.90;;;;;;5027553;28;20026;-82
2022/09/10 00:40:31;;;;;;;2.95;0.80;;;12.20;99.90;;;;;;5027159;28;20048;-82
2022/09/10 00:42:57;;;;;;;3.67;0.90;;;12.20;99.90;;;;;;5027156;28;20033;-82
2022/09/10 00:45:28;;;;;;;5.28;0.88;;;12.20;99.90;;;;;;5026896;28;20478;-82
2022/09/10 00:48:03;;;;;;;1.33;0.80;;;12.20;99.90;;;;;;5027537;28;20070;-82
2022/09/10 00:50:33;;;;;;;2.58;0.90;;;12.20;99.90;;;;;;5027486;28;20116;-82
2022/09/10 00:53:04;;;;;;;2.38;0.70;;;12.20;99.90;;;;;;5026654;28;20033;-82
2022/09/10 00:55:33;;;;;;;1.67;0.90;;;12.20;99.90;;;;;;5026682;28;20033;-82
2022/09/10 00:58:00;;;;;;;1.38;0.95;;;12.20;99.90;;;;;;5027025;28;20029;-83
2022/09/10 01:00:26;;;;;;;1.35;0.88;;;12.20;99.90;;;;;;5026966;28;20477;-82
2022/09/10 01:02:52;;;;;;;2.08;0.77;;;12.20;99.90;;;;;;5026287;28;20030;-82
2022/09/10 01:05:18;;;;;;;3.08;1.10;;;12.20;99.90;;;;;;5027296;28;20390;-83
2022/09/10 01:07:44;;;;;;;1.17;0.80;;;12.20;99.90;;;;;;5027366;28;20132;-82
2022/09/10 01:10:23;;;;;;;1.98;1.00;;;12.20;99.90;;;;;;5027263;28;20064;-82
2022/09/10 01:13:00;;;;;;;2.60;0.80;;;12.20;99.90;;;;;;5027419;28;20032;-82
2022/09/10 01:15:44;;;;;;;2.08;0.80;;;12.20;99.90;;;;;;5026992;28;20107;-82
2022/09/10 01:18:32;;;;;;;2.25;1.00;;;12.20;99.90;;;;;;5026816;28;20589;-82
2022/09/10 01:21:21;;;;;;;2.25;1.00;;;12.20;99.90;;;;;;5027327;28;20161;-82
2022/09/10 01:24:03;;;;;;;1.40;0.80;;;12.30;99.90;;;;;;5027189;28;20079;-82
2022/09/10 01:26:45;;;;;;;3.97;1.13;;;12.30;99.90;;;;;;5026636;28;20056;-82
2022/09/10 01:29:27;;;;;;;2.75;1.05;;;12.30;99.90;;;;;;5026218;28;20045;-82
2022/09/10 01:31:55;;;;;;;4.40;1.00;;;12.30;99.90;;;;;;5026716;28;20028;-82
2022/09/10 01:34:31;;;;;;;4.28;1.10;;;12.30;99.90;;;;;;5027105;28;20116;-82
2022/09/10 01:37:04;;;;;;;1.98;1.00;;;12.30;99.90;;;;;;5026904;28;20032;-77
2022/09/10 01:39:30;;;;;;;7.55;1.67;;;12.30;99.90;;;;;;5027666;28;20366;-77
2022/09/10 01:41:56;;;;;;;5.82;1.10;;;12.30;99.90;;;;;;5028319;28;20029;-77
2022/09/10 01:44:51;;;;;;;2.00;1.08;;;12.40;99.90;;;;;;5027744;28;20394;-77
2022/09/10 01:47:26;;;;;;;1.05;0.90;;;12.40;99.90;;;;;;5028098;28;20063;-77
2022/09/10 01:49:59;;;;;;;3.90;0.90;;;12.40;99.90;;;;;;5027909;28;20021;-77
2022/09/10 01:52:46;;;;;;;2.47;0.82;;;12.40;99.90;;;;;;5027763;28;20112;-77
2022/09/10 01:55:24;;;;;;;2.55;0.73;;;12.40;99.90;;;;;;5028323;28;20112;-77
2022/09/10 01:57:56;;;;;;;3.25;1.13;;;12.50;99.90;;;;;;5028402;28;20036;-77
2022/09/10 02:00:24;;;;;;;1.13;0.75;;;12.40;99.90;;;;;;5027677;28;20079;-76
2022/09/10 02:03:10;;;;;;;1.95;0.90;;;12.50;99.90;;;;;;5026671;28;20029;-76
2022/09/10 02:05:39;;;;;;;1.33;0.88;;;12.50;99.90;;;;;;5027085;28;20025;-76
2022/09/10 02:08:11;;;;;;;3.15;1.20;;;12.50;99.90;;;;;;5027065;28;20029;-76
2022/09/10 02:10:59;;;;;;;3.92;0.98;;;12.50;99.90;;;;;;5026973;28;20040;-76
2022/09/10 02:13:28;;;;;;;4.55;1.05;;;12.40;99.90;;;;;;5026489;28;20422;-76
2022/09/10 02:15:55;;;;;;;3.20;1.13;;;12.40;99.90;;;;;;5029544;28;20093;-76
2022/09/10 02:18:22;;;;;;;4.90;0.88;;;12.40;99.90;;;;;;5030768;28;20068;-76
2022/09/10 02:20:54;;;;;;;2.30;1.00;;;12.40;99.90;;;;;;5030142;28;20462;-76
2022/09/10 02:23:27;;;;;;;2.15;1.27;;;12.40;99.90;;;;;;5030675;28;20406;-76
2022/09/10 02:25:52;;;;;;;4.88;1.00;;;12.40;99.90;;;;;;5030466;28;20030;-76
2022/09/10 02:28:18;;;;;;;2.88;1.08;;;12.30;99.90;;;;;;5029709;28;20021;-76
2022/09/10 02:30:47;;;;;;;1.55;0.98;;;12.30;99.90;;;;;;5029767;28;20443;-76
2022/09/10 02:33:15;;;;;;;2.97;1.00;;;12.30;99.90;;;;;;5029576;28;20115;-76
2022/09/10 02:35:41;;;;;;;4.13;1.20;;;12.30;99.90;;;;;;5029803;28;20025;-76
2022/09/10 02:38:07;;;;;;;1.88;0.95;;;12.30;99.90;;;;;;5029850;28;20032;-76
2022/09/10 02:40:32;;;;;;;2.40;1.10;;;12.30;99.90;;;;;;5029538;28;20033;-76
2022/09/10 02:42:58;;;;;;;3.53;0.85;;;12.30;99.90;;;;;;5029643;28;20037;-76
2022/09/10 02:45:24;;;;;;;3.22;1.10;;;12.20;99.90;;;;;;5029907;28;20033;-76
2022/09/10 02:47:49;;;;;;;2.70;1.00;;;12.20;99.90;;;;;;5029471;28;20108;-76
2022/09/10 02:50:15;;;;;;;5.10;1.00;;;12.20;99.90;;;;;;5029985;28;20033;-76
2022/09/10 02:52:44;;;;;;;3.42;1.17;;;12.20;99.90;;;;;;5029593;28;20037;-76
2022/09/10 02:55:11;;;;;;;3.47;1.02;;;12.10;99.90;;;;;;5030092;28;20025;-76
2022/09/10 02:57:38;;;;;;;2.65;1.00;;;12.10;99.90;;;;;;5029131;28;20049;-76
2022/09/10 03:00:05;;;;;;;3.33;1.00;;;12.10;99.90;;;;;;5029116;28;20324;-76
2022/09/10 03:02:31;;;;;;;3.35;1.00;;;12.10;99.90;;;;;;5029217;28;20068;-76
2022/09/10 03:04:56;;;;;;;2.00;0.85;;;12.10;99.90;;;;;;5028504;28;20458;-76
2022/09/10 03:07:22;;;;;;;3.45;0.85;;;12.10;99.90;;;;;;5029937;28;20075;-76
2022/09/10 03:09:48;;;;;;;2.97;1.00;;;12.10;99.90;;;;;;5029377;28;20120;-76
2022/09/10 03:12:15;;;;;;;3.13;1.00;;;12.10;99.90;;;;;;5029808;28;20441;-76
2022/09/10 03:14:41;;;;;;;3.28;1.05;;;12.10;99.90;;;;;;5029052;28;20041;-76
2022/09/10 03:17:07;;;;;;;2.35;0.95;;;12.10;99.90;;;;;;5029946;28;20099;-76
2022/09/10 03:19:32;;;;;;;2.65;0.88;;;12.10;99.90;;;;;;5029550;28;20041;-76
2022/09/10 03:21:58;;;;;;;4.82;1.00;;;12.10;99.90;;;;;;5030167;28;20033;-76
2022/09/10 03:24:24;;;;;;;3.63;1.00;;;12.10;99.90;;;;;;5029485;28;20068;-82
2022/09/10 03:26:49;;;;;;;3.88;0.90;;;12.10;99.90;;;;;;5027904;28;20041;-81
2022/09/10 03:29:15;;;;;;;8.90;1.35;;;12.10;99.90;;;;;;5029486;28;20568;-82
2022/09/10 03:31:41;;;;;;;5.53;1.63;;;12.10;99.90;;;;;;5029316;28;20035;-82
2022/09/10 03:34:09;;;;;;;4.00;0.98;;;12.10;99.90;;;;;;5029445;28;20112;-82
2022/09/10 03:36:35;;;;;;;6.30;1.45;;;12.00;99.90;;;;;;5029231;28;20091;-82
2022/09/10 03:39:00;;;;;;;1.83;1.10;;;12.10;99.90;;;;;;5028882;28;20386;-81
2022/09/10 03:41:27;;;;;;;1.17;0.90;;;12.10;99.90;;;;;;5028875;28;20543;-82
2022/09/10 03:43:53;;;;;;;1.73;1.00;;;12.10;99.90;;;;;;5029253;28;20029;-82
2022/09/10 03:46:21;;;;;;;1.77;0.90;;;12.10;99.90;;;;;;5028291;28;20056;-82
2022/09/10 03:48:47;;;;;;;6.13;1.13;;;12.10;99.90;;;;;;5028527;28;20057;-82
2022/09/10 03:51:12;;;;;;;2.17;0.98;;;12.10;99.90;;;;;;5027936;28;20454;-82
2022/09/10 03:53:39;;;;;;;2.33;1.00;;;12.10;99.90;;;;;;5028125;28;20065;-82
2022/09/10 03:56:05;;;;;;;3.78;1.02;;;12.20;99.90;;;;;;5027971;28;20068;-82
2022/09/10 03:58:31;;;;;;;2.38;1.70;;;12.20;99.90;;;;;;5027802;28;20385;-82
2022/09/10 04:00:57;;;;;;;2.90;1.10;;;12.20;99.90;;;;;;5028132;28;20033;-82
2022/09/10 04:03:22;;;;;;;1.75;0.90;;;12.20;99.90;;;;;;5027217;28;20104;-82
2022/09/10 04:05:48;;;;;;;3.35;0.90;;;12.20;99.90;;;;;;5027785;28;20025;-82
2022/09/10 04:08:14;;;;;;;1.95;0.90;;;12.30;99.90;;;;;;5027468;28;20037;-82
2022/09/10 04:10:41;;;;;;;3.58;1.08;;;12.30;99.90;;;;;;5027316;28;20091;-82
2022/09/10 04:13:06;;;;;;;4.97;0.93;;;12.30;99.90;;;;;;5028100;28;20079;-82
2022/09/10 04:15:32;;;;;;;2.45;1.10;;;12.40;99.90;;;;;;5028606;28;20379;-82
2022/09/10 04:17:58;;;;;;;3.45;0.90;;;12.30;99.90;;;;;;5027660;28;20044;-82
2022/09/10 04:20:24;;;;;;;2.58;0.85;;;12.30;99.90;;;;;;5028020;28;20041;-82
2022/09/10 04:22:50;;;;;;;2.85;1.10;;;12.40;99.90;;;;;;5027326;28;20037;-82
2022/09/10 04:25:16;;;;;;;4.70;0.98;;;12.40;99.90;;;;;;5028130;28;20051;-81
2022/09/10 04:27:42;;;;;;;3.08;0.80;;;12.40;99.90;;;;;;5027353;28;20128;-81
2022/09/10 04:30:08;;;;;;;2.20;0.93;;;12.40;99.90;;;;;;5027744;28;20442;-82
2022/09/10 04:32:34;;;;;;;2.17;0.85;;;12.50;99.90;;;;;;5027183;28;20421;-82
2022/09/10 04:35:01;;;;;;;3.40;0.93;;;12.50;99.90;;;;;;5028297;28;20040;-82
2022/09/10 04:37:27;;;;;;;2.80;0.90;;;12.50;99.90;;;;;;5029073;28;20017;-77
2022/09/10 04:39:53;;;;;;;1.05;0.73;;;12.50;99.90;;;;;;5027794;28;20092;-76
2022/09/10 04:42:19;;;;;;;2.10;0.85;;;12.50;99.90;;;;;;5028283;28;20339;-76
2022/09/10 04:44:45;;;;;;;2.70;0.90;;;12.50;99.90;;;;;;5026837;28;20133;-76
2022/09/10 04:47:11;;;;;;;3.10;1.05;;;12.60;99.90;;;;;;5025916;28;20033;-76
2022/09/10 04:49:37;;;;;;;2.50;0.85;;;12.60;99.90;;;;;;5026765;28;20107;-76
2022/09/10 04:52:03;;;;;;;2.55;0.90;;;12.60;99.90;;;;;;5027595;28;20029;-76
2022/09/10 04:54:28;;;;;;;3.70;1.10;;;12.60;99.90;;;;;;5026795;28;20120;-76
2022/09/10 04:56:54;;;;;;;2.60;0.95;;;12.70;99.90;;;;;;5027412;28;20490;-76
2022/09/10 04:59:20;;;;;;;2.20;0.90;;;12.70;99.90;;;;;;5028103;28;20037;-76
2022/09/10 05:01:49;;;;;;;1.02;0.80;;;12.70;99.90;;;;;;5026600;28;20108;-76
2022/09/10 05:04:15;;;;;;;3.40;1.02;;;12.80;99.90;;;;;;5026067;28;20648;-76
2022/09/10 05:06:40;;;;;;;4.40;1.02;;;12.70;99.90;;;;;;5027576;28;20065;-76
2022/09/10 05:09:06;;;;;;;4.10;1.00;;;12.80;99.90;;;;;;5026208;28;20541;-76
2022/09/10 05:11:32;;;;;;;2.72;0.73;;;12.80;99.90;;;;;;5027697;28;20057;-76
2022/09/10 05:13:58;;;;;;;6.30;1.10;;;12.80;99.90;;;;;;5027786;28;20501;-76
2022/09/10 05:16:23;;;;;;;0.90;0.73;;;12.80;99.90;;;;;;5028094;28;20557;-76
2022/09/10 05:18:49;;;;;;;2.25;1.00;;;12.90;99.90;;;;;;5027411;28;20183;-76
2022/09/10 05:21:17;;;;;;;2.20;0.93;;;12.90;99.90;;;;;;5028049;28;20037;-76
2022/09/10 05:23:42;;;;;;;1.70;0.90;;;13.00;99.90;;;;;;5027920;28;20032;-76
2022/09/10 05:26:09;;;;;;;4.30;0.95;;;13.00;99.90;;;;;;5027683;28;20462;-76
2022/09/10 05:28:35;;;;;;;2.35;0.80;;;13.00;99.90;;;;;;5027356;28;20119;-76
2022/09/10 05:31:00;;;;;;;2.10;0.80;;;13.00;99.90;;;;;;5027657;28;20040;-76
2022/09/10 05:33:26;;;;;;;4.00;1.00;;;13.00;99.90;;;;;;5026881;28;20040;-76
2022/09/10 05:35:51;;;;;;;1.98;0.77;;;13.10;99.90;;;;;;5027341;28;20042;-76
2022/09/10 05:38:17;;;;;;;3.03;0.85;;;13.10;99.90;;;;;;5027478;28;20025;-76
2022/09/10 05:40:42;;;;;;;2.15;0.80;;;13.10;99.90;;;;;;5027592;28;20037;-76
2022/09/10 05:43:09;;;;;;;5.55;1.30;;;13.10;99.90;;;;;;5027896;28;20052;-76
2022/09/10 05:45:34;;;;;;;4.85;1.00;;;13.10;99.90;;;;;;5027272;28;20045;-76
2022/09/10 05:48:00;;;;;;;3.30;1.00;;;13.20;99.90;;;;;;5027370;28;20033;-76
2022/09/10 05:50:27;;;;;;;1.90;1.00;;;13.20;99.90;;;;;;5029234;28;20037;-76
2022/09/10 05:52:52;;;;;;;2.28;1.23;;;13.20;99.90;;;;;;5031268;28;20025;-76
2022/09/10 05:55:18;;;;;;;2.15;1.00;;;13.20;99.90;;;;;;5030168;28;20492;-76
2022/09/10 05:57:43;;;;;;;5.38;0.90;;;13.30;99.90;;;;;;5030975;28;20047;-76
2022/09/10 06:00:09;;;;;;;1.73;1.00;;;13.30;99.90;;;;;;5031102;28;20753;-76
2022/09/10 06:02:35;;;;;;;2.30;0.90;;;13.30;99.90;;;;;;5030879;28;20052;-76
2022/09/10 06:05:01;;;;;;;1.85;0.85;;;13.40;99.90;;;;;;5029455;28;20029;-76
2022/09/10 06:07:27;;;;;;;2.55;1.13;;;13.50;99.90;;;;;;5030892;28;20026;-76
2022/09/10 06:09:53;;;;;;;3.20;0.80;;;13.60;99.90;;;;;;5030247;28;20026;-76
2022/09/10 06:12:18;;;;;;;2.78;0.90;;;13.70;99.90;;;;;;5030688;28;20463;-76
2022/09/10 06:14:44;;;;;;;1.88;0.90;;;13.60;99.90;;;;;;5030030;28;20513;-76
2022/09/10 06:17:10;;;;;;;7.05;1.20;;;13.60;99.90;;;;;;5030969;28;20017;-76
2022/09/10 06:19:35;;;;;;;5.97;1.15;;;13.60;99.90;;;;;;5030364;28;20032;-75
2022/09/10 06:22:01;;;;;;;1.67;0.88;;;13.60;99.90;;;;;;5031143;28;20032;-76
2022/09/10 06:24:26;;;;;;;4.95;1.33;;;13.50;99.90;;;;;;5030620;28;20379;-76
2022/09/10 06:26:52;;;;;;;3.50;1.33;;;13.40;99.90;;;;;;5030646;28;20079;-76
2022/09/10 06:29:18;;;;;;;3.38;1.10;;;13.30;99.90;;;;;;5029742;28;20075;-76
2022/09/10 06:31:45;;;;;;;1.73;0.88;;;13.20;99.90;;;;;;5029805;28;20029;-76
2022/09/10 06:34:11;;;;;;;3.17;1.00;;;13.20;99.90;;;;;;5029662;28;20030;-76
2022/09/10 06:36:36;;;;;;;4.25;1.10;;;13.10;99.90;;;;;;5030435;28;20318;-76
2022/09/10 06:39:02;;;;;;;2.95;1.02;;;13.10;99.90;;;;;;5029944;28;20120;-76
2022/09/10 06:41:29;;;;;;;3.70;1.27;;;13.00;99.90;;;;;;5029853;28;20049;-76
2022/09/10 06:43:56;;;;;;;3.20;1.13;;;13.10;99.90;;;;;;5030269;28;20029;-76
2022/09/10 06:46:22;;;;;;;2.20;1.05;;;13.10;99.90;;;;;;5029927;28;20025;-76
2022/09/10 06:48:48;;;;;;;2.65;0.93;;;13.00;99.90;;;;;;5029674;28;20434;-76
2022/09/10 06:51:14;;;;;;;4.80;1.30;;;13.00;99.90;;;;;;5029683;28;20029;-76
2022/09/10 06:53:41;;;;;;;4.35;1.00;;;13.00;99.90;;;;;;5029450;28;20034;-76
2022/09/10 06:56:10;;;;;;;2.50;1.00;;;13.00;99.90;;;;;;5030115;28;20091;-76
2022/09/10 06:58:37;;;;;;;1.60;1.10;;;13.00;99.90;;;;;;5030096;28;20861;-76
2022/09/10 07:01:16;;;;;;;4.32;1.38;;;13.00;99.90;;;;;;5028682;28;20021;-76
2022/09/10 07:03:44;;;;;;;3.33;1.20;;;13.00;99.90;;;;;;5029195;28;20049;-76
2022/09/10 07:06:15;;;;;;;1.00;0.70;;;13.10;99.90;;;;;;5029709;28;20395;-76
2022/09/10 07:08:40;;;;;;;2.83;0.93;;;13.10;99.90;;;;;;5029195;28;20041;-76
2022/09/10 07:11:11;;;;;;;1.92;0.90;;;13.10;99.90;;;;;;5029558;28;20471;-76
2022/09/10 07:13:39;;;;;;;2.35;0.90;;;13.10;99.90;;;;;;5029180;28;20036;-76
2022/09/10 07:16:05;;;;;;;2.15;0.90;;;13.20;99.90;;;;;;5029452;28;20120;-76
2022/09/10 07:18:32;;;;;;;2.85;1.05;;;13.20;99.90;;;;;;5029265;28;20459;-76
2022/09/10 07:21:11;;;;;;;4.07;1.10;;;13.20;99.90;;;;;;5029197;28;20036;-76
2022/09/10 07:23:40;;;;;;;2.72;0.80;;;13.40;99.90;;;;;;5028542;28;20033;-76
2022/09/10 07:26:14;;;;;;;1.45;0.82;;;13.40;99.90;;;;;;5028770;28;20025;-76
2022/09/10 07:28:43;;;;;;;2.92;0.88;;;13.60;99.90;;;;;;5028940;28;20063;-76
2022/09/10 07:31:14;;;;;;;4.53;1.05;;;13.60;99.90;;;;;;5028968;28;20128;-76
2022/09/10 07:33:40;;;;;;;2.30;0.93;;;13.70;99.90;;;;;;5028923;28;20544;-76
2022/09/10 07:36:07;;;;;;;1.23;0.70;;;13.90;99.90;;;;;;5028399;28;20038;-76
2022/09/10 07:38:32;;;;;;;2.20;0.93;;;13.90;99.90;;;;;;5028836;28;20021;-76
2022/09/10 07:40:59;;;;;;;2.75;0.88;;;14.10;99.90;;;;;;5029385;28;20030;-76
2022/09/10 07:43:24;;;;;;;2.90;1.10;;;14.10;99.90;;;;;;5028927;28;20038;-76
2022/09/10 07:45:50;;;;;;;3.42;0.90;;;14.20;99.90;;;;;;5029341;28;20036;-76
2022/09/10 07:48:15;;;;;;;2.92;0.90;;;14.30;99.90;;;;;;5029199;28;20510;-76
2022/09/10 07:50:41;;;;;;;2.22;0.90;;;14.40;99.90;;;;;;5027982;28;20112;-76
2022/09/10 07:53:06;;;;;;;3.97;0.70;;;14.60;99.90;;;;;;5028145;28;20459;-76
2022/09/10 07:55:32;;;;;;;2.42;0.90;;;14.60;99.90;;;;;;5028599;28;20056;-76
2022/09/10 07:57:58;;;;;;;1.77;0.90;;;14.60;99.90;;;;;;5028732;28;20049;-76
2022/09/10 08:00:23;;;;;;;2.17;0.80;;;14.60;99.90;;;;;;5029096;28;20029;-76
2022/09/10 08:02:49;;;;;;;2.15;0.75;;;14.50;99.90;;;;;;5028286;28;20116;-77
2022/09/10 08:05:15;;;;;;;2.08;0.88;;;14.50;99.90;;;;;;5028727;28;20063;-77
2022/09/10 08:07:41;;;;;;;3.03;1.00;;;14.50;99.90;;;;;;5028401;28;20036;-76
2022/09/10 08:10:08;;;;;;;1.75;0.75;;;14.40;99.90;;;;;;5033097;28;20033;-76
2022/09/10 08:12:35;;;;;;;1.35;0.88;;;14.40;99.90;;;;;;5032675;28;20112;-76
2022/09/10 08:15:01;;;;;;;2.20;0.82;;;14.40;99.90;;;;;;5032672;28;20109;-76
2022/09/10 08:17:30;;;;;;;1.70;0.63;;;14.40;99.90;;;;;;5032222;28;20037;-76
2022/09/10 08:19:56;;;;;;;2.35;0.70;;;14.40;99.90;;;;;;5031541;28;20037;-77
2022/09/10 08:22:22;;;;;;;1.65;0.90;;;14.50;99.90;;;;;;5030678;28;20051;-77
2022/09/10 08:24:48;;;;;;;1.83;0.80;;;14.50;99.90;;;;;;5030335;28;20039;-76
2022/09/10 08:27:14;;;;;;;1.45;0.75;;;14.60;99.90;;;;;;5029797;28;20037;-76
2022/09/10 08:29:40;;;;;;;1.95;1.17;;;14.70;99.90;;;;;;5029291;28;20394;-76
2022/09/10 08:32:06;;;;;;;2.03;0.80;;;14.90;99.90;;;;;;5028562;28;20103;-76
2022/09/10 08:34:33;;;;;;;3.13;0.90;;;15.10;99.90;;;;;;5030111;28;20060;-77
2022/09/10 08:36:59;;;;;;;2.85;0.82;;;15.20;99.90;;;;;;5029596;28;20033;-76
2022/09/10 08:39:25;;;;;;;2.65;0.90;;;15.30;99.90;;;;;;5029828;28;20549;-76
2022/09/10 08:41:57;;;;;;;2.50;0.82;;;15.40;99.90;;;;;;5029692;28;20461;-76
2022/09/10 08:44:39;;;;;;;1.15;0.80;;;15.50;99.90;;;;;;5029483;28;20034;-77
2022/09/10 08:47:20;;;;;;;1.75;0.95;;;15.50;99.90;;;;;;5029636;28;20037;-76
2022/09/10 08:50:15;;;;;;;2.03;0.90;;;15.70;99.90;;;;;;5029076;28;20478;-76
2022/09/10 08:52:48;;;;;;;1.77;0.80;;;15.80;99.90;;;;;;5029696;28;20029;-76
2022/09/10 08:55:17;;;;;;;3.53;0.98;;;15.90;99.90;;;;;;5027768;28;20033;-77
2022/09/10 08:58:06;;;;;;;2.22;0.75;;;16.10;99.90;;;;;;5027944;28;20568;-76
2022/09/10 09:00:38;;;;;;;2.72;0.90;;;16.50;99.90;;;;;;5027591;28;20032;-76
2022/09/10 09:03:25;;;;;;;1.92;0.90;;;16.90;99.90;;;;;;5028160;28;20038;-76
2022/09/10 09:06:00;;;;;;;1.85;0.88;;;17.10;99.90;;;;;;5027357;28;20091;-76
2022/09/10 09:08:34;;;;;;;2.42;1.00;;;17.30;99.90;;;;;;5027666;28;20033;-76
2022/09/10 09:11:21;;;;;;;4.68;0.90;;;17.40;99.90;;;;;;5027491;28;20041;-77
2022/09/10 09:13:56;;;;;;;1.98;0.80;;;17.30;99.90;;;;;;5025670;28;20410;-76
2022/09/10 09:16:22;;;;;;;2.30;1.00;;;17.30;99.90;;;;;;5027460;28;20466;-76
2022/09/10 09:19:13;;;;;;;1.70;0.80;;;17.40;99.90;;;;;;5027007;28;20025;-76
2022/09/10 09:22:00;;;;;;;2.63;0.82;;;17.50;99.90;;;;;;5027554;28;20034;-76
2022/09/10 09:24:57;;;;;;;3.80;0.88;;;17.50;99.90;;;;;;5027162;28;20029;-77
2022/09/10 09:27:26;;;;;;;3.10;1.00;;;17.40;99.90;;;;;;5027479;28;20030;-76
2022/09/10 09:30:00;;;;;;;1.33;0.75;;;17.50;99.90;;;;;;5026871;28;20030;-76
2022/09/10 09:32:31;;;;;;;1.10;0.80;;;17.50;99.90;;;;;;5026885;28;20033;-76
2022/09/10 09:35:11;;;;;;;2.88;0.98;;;17.40;99.90;;;;;;5026715;28;20033;-76
2022/09/10 09:37:40;;;;;;;3.00;0.77;;;17.20;99.90;;;;;;5026940;28;20032;-76
2022/09/10 09:40:11;;;;;;;1.83;1.00;;;17.20;99.90;;;;;;5026791;28;20112;-76
2022/09/10 09:42:47;;;;;;;1.25;0.85;;;17.10;99.90;;;;;;5027016;28;20040;-76
2022/09/10 09:45:38;;;;;;;4.30;1.00;;;17.00;99.90;;;;;;5027150;28;20036;-76
2022/09/10 09:48:11;;;;;;;2.25;0.80;;;17.10;99.90;;;;;;5027304;28;20489;-76
2022/09/10 09:50:40;;;;;;;1.63;0.70;;;17.20;99.90;;;;;;5027481;28;20473;-82
2022/09/10 09:53:08;;;;;;;3.00;1.08;;;17.30;99.90;;;;;;5027319;28;20025;-81
2022/09/10 09:55:39;;;;;;;1.42;0.80;;;17.50;99.90;;;;;;5027152;28;20053;-81
2022/09/10 09:58:25;;;;;;;3.08;0.80;;;17.60;99.90;;;;;;5026741;28;20030;-82
2022/09/10 10:01:03;;;;;;;1.48;0.80;;;17.60;99.90;;;;;;5026886;28;20040;-82
2022/09/10 10:03:42;;;;;;;1.58;0.70;;;17.60;99.90;;;;;;5027277;28;20100;-82
2022/09/10 10:06:10;;;;;;;1.95;0.82;;;17.50;99.90;;;;;;5026863;28;20414;-82
2022/09/10 10:09:05;;;;;;;3.55;0.80;;;17.50;99.90;;;;;;5026630;28;20026;-81
2022/09/10 10:11:47;;;;;;;2.50;0.88;;;17.70;99.90;;;;;;5023497;28;19959;-82
2022/09/10 10:14:19;;;;;;;1.48;0.60;;;17.70;99.90;;;;;;5026665;28;20052;-82
2022/09/10 10:16:50;;;;;;;1.15;0.70;;;17.50;99.90;;;;;;5026702;28;20033;-81
2022/09/10 10:19:37;;;;;;;3.38;0.80;;;17.40;99.90;;;;;;5026973;28;20048;-82
2022/09/10 10:22:24;;;;;;;3.67;0.60;;;17.50;99.90;;;;;;5026329;28;20037;-82
2022/09/10 10:24:52;;;;;;;1.98;1.00;;;17.60;99.90;;;;;;5026987;28;20052;-82
2022/09/10 10:27:40;;;;;;;2.42;0.73;;;17.70;99.90;;;;;;5026438;28;20374;-82
2022/09/10 10:30:20;;;;;;;1.73;0.82;;;17.90;99.90;;;;;;5027100;28;20116;-82
2022/09/10 10:33:00;;;;;;;0.77;0.63;;;17.90;99.90;;;;;;5026710;28;20082;-82
2022/09/10 10:35:31;;;;;;;1.08;0.80;;;18.10;99.90;;;;;;5026180;28;20497;-82
2022/09/10 10:38:09;;;;;;;2.22;0.70;;;18.20;99.90;;;;;;5029443;28;20053;-82
2022/09/10 10:40:42;;;;;;;1.05;0.80;;;18.80;99.90;;;;;;5030350;28;20490;-83
2022/09/10 10:43:54;;;;;;;0.82;0.65;;;19.10;99.90;;;;;;5029500;28;20028;-82
2022/09/10 10:46:24;;;;;;;2.80;1.10;;;19.00;99.90;;;;;;5029920;28;20027;-82
2022/09/10 10:48:53;;;;;;;2.95;0.98;;;19.00;99.90;;;;;;5030434;28;20065;-82
2022/09/10 10:51:40;;;;;;;1.60;0.80;;;18.80;99.90;;;;;;5030339;28;20026;-82
2022/09/10 10:54:24;;;;;;;1.63;0.70;;;18.60;99.90;;;;;;5029541;28;20075;-81
2022/09/10 10:57:02;;;;;;;2.90;0.82;;;18.80;99.90;;;;;;5030079;28;20053;-82
2022/09/10 10:59:44;;;;;;;2.28;0.82;;;18.90;99.90;;;;;;5029397;28;20512;-81
2022/09/10 11:02:12;;;;;;;2.45;0.80;;;19.40;99.90;;;;;;5029430;28;20108;-81
2022/09/10 11:04:50;;;;;;;4.72;0.98;;;19.70;99.90;;;;;;5029588;28;20025;-82
2022/09/10 11:07:29;;;;;;;2.20;0.80;;;19.80;99.90;;;;;;5029600;28;20034;-82
2022/09/10 11:09:58;;;;;;;1.45;0.73;;;19.70;99.90;;;;;;5029315;28;20029;-81
2022/09/10 11:12:34;;;;;;;1.25;0.60;;;19.80;99.90;;;;;;5029608;28;20498;-82
2022/09/10 11:15:09;;;;;;;2.10;0.90;;;19.90;99.90;;;;;;5029322;28;20095;-82
2022/09/10 11:17:38;;;;;;;;;;;20.20;99.90;;;;;;5030590;28;20026;-82
2022/09/10 11:20:17;;;;;;;2.83;0.93;;;20.30;99.90;;;;;;5029399;28;19916;-82
2022/09/10 11:22:56;;;;;;;1.42;0.60;;;20.60;99.90;;;;;;5028840;28;20055;-82
2022/09/10 11:25:36;;;;;;;0.90;0.70;;;21.00;99.90;;;;;;5029211;28;20040;-82
2022/09/10 11:28:19;;;;;;;0.80;0.50;;;21.20;99.90;;;;;;5029040;28;20056;-82
2022/09/10 11:30:52;;;;;;;2.30;1.08;;;21.30;99.90;;;;;;5028797;28;20443;-81
2022/09/10 11:33:32;;;;;;;2.80;0.82;;;21.10;99.90;;;;;;5028786;28;20025;-82
2022/09/10 11:36:02;;;;;;;2.90;0.90;;;20.90;99.90;;;;;;5028945;28;20032;-82
2022/09/10 11:38:51;;;;;;;2.42;0.88;;;20.80;99.90;;;;;;5029129;28;20470;-82
2022/09/10 11:41:27;;;;;;;2.58;0.80;;;21.00;99.90;;;;;;5028921;28;20025;-81
2022/09/10 11:44:11;;;;;;;2.67;0.70;;;20.80;99.90;;;;;;5028276;28;20083;-81
2022/09/10 11:46:41;;;;;;;1.97;1.00;;;21.00;99.90;;;;;;5028789;28;20064;-81
2022/09/10 11:49:15;;;;;;;2.05;0.70;;;21.20;99.90;;;;;;5028692;28;20811;-82
2022/09/10 11:51:42;;;;;;;3.20;0.70;;;21.50;99.90;;;;;;5028671;28;20033;-82
2022/09/10 11:54:17;;;;;;;1.25;0.70;;;21.50;99.90;;;;;;5028408;28;20394;-81
2022/09/10 11:57:01;;;;;;;2.78;0.80;;;21.50;99.90;;;;;;5028369;28;20050;-82
2022/09/10 11:59:36;;;;;;;1.65;0.80;;;21.60;99.90;;;;;;5028496;28;20044;-82
2022/09/10 12:02:13;;;;;;;1.95;0.63;;;21.50;99.90;;;;;;5029246;28;20489;-82
2022/09/10 12:05:01;;;;;;;2.78;0.90;;;21.50;99.90;;;;;;5028826;28;20052;-82
2022/09/10 12:07:52;;;;;;;4.70;0.85;;;21.60;99.90;;;;;;5027794;28;20036;-81
2022/09/10 12:10:31;;;;;;;1.20;0.68;;;21.50;99.90;;;;;;5028479;28;20041;-81
2022/09/10 12:12:57;;;;;;;4.20;1.10;;;21.60;99.90;;;;;;5028210;28;20370;-81
2022/09/10 12:15:30;;;;;;;2.35;0.90;;;21.40;99.90;;;;;;5028579;28;20110;-81
2022/09/10 12:18:21;;;;;;;1.95;0.85;;;21.40;99.90;;;;;;5028349;28;20363;-81
2022/09/10 12:20:58;;;;;;;4.57;0.93;;;21.50;99.90;;;;;;5028235;28;20022;-82
2022/09/10 12:23:30;;;;;;;2.97;0.80;;;21.70;99.90;;;;;;5028231;28;20030;-81
2022/09/10 12:26:16;;;;;;;1.63;0.70;;;21.80;99.90;;;;;;5027652;28;20413;-82
2022/09/10 12:28:41;;;;;;;2.35;0.82;;;22.00;99.90;;;;;;5027766;28;20030;-81
2022/09/10 12:31:08;;;;;;;1.65;0.65;;;22.20;99.90;;;;;;5028020;28;20109;-81
2022/09/10 12:33:45;;;;;;;1.67;0.70;;;22.60;99.90;;;;;;5028264;28;20243;-82
2022/09/10 12:36:31;;;;;;;1.60;0.70;;;22.80;99.90;;;;;;5027803;28;20079;-81
2022/09/10 12:39:18;;;;;;;1.50;0.70;;;22.80;99.90;;;;;;5016397;28;20486;-82
2022/09/10 12:41:44;;;;;;;1.88;0.80;;;22.50;99.90;;;;;;5027499;28;20386;-82
2022/09/10 12:44:27;;;;;;;2.63;0.70;;;22.10;99.90;;;;;;5028028;28;20045;-81
2022/09/10 12:47:14;;;;;;;2.97;0.70;;;21.90;99.90;;;;;;5028023;28;20425;-81
2022/09/10 12:50:01;;;;;;;2.42;0.70;;;21.50;99.90;;;;;;5027937;28;20513;-81
2022/09/10 12:52:56;;;;;;;1.80;0.70;;;21.00;99.90;;;;;;5028306;28;20450;-82
2022/09/10 12:55:56;;;;;;;2.30;0.85;;;20.70;99.90;;;;;;5025885;28;20048;-82
2022/09/10 12:58:22;;;;;;;4.13;1.10;;;20.70;99.90;;;;;;5026893;28;20029;-82
2022/09/10 13:00:53;;;;;;;2.25;0.90;;;20.60;99.90;;;;;;5026958;28;20056;-81
2022/09/10 13:03:22;;;;;;;5.20;1.00;;;20.60;99.90;;;;;;5027534;28;20387;-81
2022/09/10 13:05:52;;;;;;;1.42;0.70;;;20.40;99.90;;;;;;5027186;28;20722;-82
2022/09/10 13:08:37;;;;;;;2.30;0.90;;;20.40;99.90;;;;;;5026915;28;20116;-81